createdAt,value
2017-03-02T00:01:12.178Z,25.05
2017-03-02T00:02:23.578Z,24.85
2017-03-02T00:03:23.714Z,24.85
2017-03-02T00:04:09.226Z,24.87
2017-03-02T00:04:54.794Z,24.77
2017-03-02T00:05:40.517Z,24.69
2017-03-02T00:05:55.146Z,24.74
2017-03-02T00:06:45.974Z,24.67
2017-03-02T00:08:02.605Z,24.66
2017-03-02T00:08:17.270Z,24.75
2017-03-02T00:08:31.933Z,24.7
2017-03-02T00:09:17.440Z,24.7
2017-03-02T00:09:32.055Z,24.67
2017-03-02T00:09:46.745Z,24.69
2017-03-02T00:10:01.352Z,24.8
2017-03-02T00:10:15.984Z,24.69
2017-03-02T00:12:17.925Z,24.66
2017-03-02T00:12:32.663Z,24.7
2017-03-02T00:13:18.200Z,24.69
2017-03-02T00:14:03.752Z,24.56
2017-03-02T00:14:18.341Z,24.61
2017-03-02T00:15:18.492Z,24.59
2017-03-02T00:16:04.012Z,24.51
2017-03-02T00:16:49.534Z,24.46
2017-03-02T00:17:35.135Z,24.39
2017-03-02T00:17:49.803Z,24.48
2017-03-02T00:18:35.325Z,24.49
2017-03-02T00:19:20.843Z,24.4
2017-03-02T00:19:35.426Z,24.45
2017-03-02T00:20:21.150Z,24.34
2017-03-02T00:21:06.697Z,24.44
2017-03-02T00:21:21.328Z,24.42
2017-03-02T00:21:35.970Z,24.48
2017-03-02T00:21:50.576Z,24.42
2017-03-02T00:22:36.028Z,24.45
2017-03-02T00:23:52.484Z,24.37
2017-03-02T00:25:23.566Z,24.32
2017-03-02T00:25:38.184Z,24.27
2017-03-02T00:25:52.816Z,24.26
2017-03-02T00:26:07.391Z,24.12
2017-03-02T00:26:22.039Z,24.12
2017-03-02T00:27:07.584Z,24.21
2017-03-02T00:27:22.194Z,24.24
2017-03-02T00:28:07.836Z,24.26
2017-03-02T00:28:28.745Z,24.29
2017-03-02T00:28:43.399Z,24.26
2017-03-02T00:28:58.024Z,24.12
2017-03-02T00:29:43.540Z,24.14
2017-03-02T00:29:58.189Z,24.14
2017-03-02T00:30:12.765Z,24.11
2017-03-02T00:30:27.380Z,24.17
2017-03-02T00:31:58.598Z,24.24
2017-03-02T00:32:13.261Z,24.26
2017-03-02T00:34:51.578Z,24.17
2017-03-02T00:35:37.096Z,24.17
2017-03-02T00:52:01.691Z,24.54
2017-03-02T00:52:16.346Z,24.44
2017-03-02T00:52:30.966Z,24.48
2017-03-02T00:52:48.624Z,24.34
2017-03-02T00:53:03.254Z,24.34
2017-03-02T00:53:17.830Z,24.37
2017-03-02T00:54:03.324Z,24.29
2017-03-02T00:54:17.920Z,24.32
2017-03-02T00:54:32.541Z,24.27
2017-03-02T00:54:47.230Z,24.36
2017-03-02T00:55:47.378Z,24.27
2017-03-02T00:56:07.823Z,24.32
2017-03-02T00:56:54.792Z,24.3
2017-03-02T00:57:54.980Z,24.37
2017-03-02T00:58:09.598Z,24.29
2017-03-02T00:58:24.165Z,24.33
2017-03-02T00:58:38.773Z,24.22
2017-03-02T00:58:53.390Z,24.3
2017-03-02T00:59:07.954Z,24.34
2017-03-02T01:00:07.016Z,24.29
2017-03-02T01:00:52.962Z,24.3
2017-03-02T01:01:07.546Z,24.34
2017-03-02T01:01:22.239Z,24.26
2017-03-02T01:01:36.866Z,24.26
2017-03-02T01:03:29.254Z,24.21
2017-03-02T01:03:43.843Z,24.29
2017-03-02T01:03:58.465Z,24.22
2017-03-02T01:04:13.284Z,24.27
2017-03-02T01:04:29.000Z,24.27
2017-03-02T01:05:09.253Z,24.24
2017-03-02T01:07:42.604Z,24.24
2017-03-02T01:09:13.625Z,24.32
2017-03-02T01:09:28.184Z,24.24
2017-03-02T01:10:13.662Z,24.22
2017-03-02T01:10:28.497Z,24.33
2017-03-02T01:11:13.982Z,24.27
2017-03-02T01:11:59.453Z,24.22
2017-03-02T01:12:14.014Z,24.22
2017-03-02T01:14:15.948Z,24.26
2017-03-02T01:15:28.846Z,24.29
2017-03-02T01:17:09.610Z,24.29
2017-03-02T01:17:24.247Z,24.39
2017-03-02T01:17:38.844Z,24.42
2017-03-02T01:17:53.425Z,24.39
2017-03-02T01:19:24.406Z,24.29
2017-03-02T01:21:00.227Z,24.33
2017-03-02T01:21:58.696Z,24.3
2017-03-02T01:22:13.416Z,24.29
2017-03-02T01:22:28.039Z,24.27
2017-03-02T01:23:13.462Z,24.18
2017-03-02T01:23:28.050Z,24.24
2017-03-02T01:24:13.568Z,24.07
2017-03-02T01:24:28.089Z,24.03
2017-03-02T01:25:28.251Z,23.93
2017-03-02T01:25:42.920Z,24
2017-03-02T01:25:57.482Z,24
2017-03-02T01:26:12.068Z,24.04
2017-03-02T01:26:37.169Z,23.9
2017-03-02T01:27:22.692Z,23.93
2017-03-02T01:27:37.357Z,24
2017-03-02T01:27:51.984Z,23.93
2017-03-02T01:29:08.347Z,23.9
2017-03-02T01:29:53.853Z,23.93
2017-03-02T01:30:08.428Z,23.99
2017-03-02T01:30:23.040Z,23.99
2017-03-02T01:30:37.686Z,23.96
2017-03-02T01:30:52.325Z,23.99
2017-03-02T01:32:03.489Z,23.89
2017-03-02T01:33:30.271Z,24.09
2017-03-02T01:34:06.942Z,24.02
2017-03-02T01:34:52.454Z,24
2017-03-02T01:36:05.570Z,23.97
2017-03-02T01:36:20.187Z,23.93
2017-03-02T01:37:05.689Z,23.99
2017-03-02T01:37:20.263Z,24.02
2017-03-02T01:37:34.893Z,23.89
2017-03-02T01:38:51.454Z,23.99
2017-03-02T01:40:02.835Z,23.96
2017-03-02T01:40:17.439Z,23.99
2017-03-02T01:41:02.924Z,23.9
2017-03-02T01:41:48.486Z,23.9
2017-03-02T01:42:03.091Z,23.85
2017-03-02T01:43:31.497Z,23.84
2017-03-02T01:43:46.147Z,23.87
2017-03-02T01:44:00.710Z,23.81
2017-03-02T01:44:15.310Z,23.78
2017-03-02T01:45:42.232Z,23.71
2017-03-02T01:45:56.822Z,23.74
2017-03-02T01:46:11.441Z,23.78
2017-03-02T01:46:52.524Z,23.74
2017-03-02T01:48:03.718Z,23.81
2017-03-02T01:48:19.129Z,23.75
2017-03-02T01:49:15.158Z,23.85
2017-03-02T01:50:00.636Z,23.85
2017-03-02T01:50:47.769Z,23.82
2017-03-02T01:51:33.238Z,23.89
2017-03-02T01:52:18.745Z,23.92
2017-03-02T01:52:39.204Z,23.9
2017-03-02T01:52:53.854Z,23.84
2017-03-02T01:53:54.543Z,23.89
2017-03-02T01:54:28.349Z,23.87
2017-03-02T01:54:42.993Z,23.75
2017-03-02T01:58:17.526Z,23.9
2017-03-02T01:59:35.627Z,24.07
2017-03-02T01:59:50.269Z,24.09
2017-03-02T02:15:21.089Z,23.97
2017-03-02T02:15:35.753Z,23.96
2017-03-02T02:15:52.362Z,24.02
2017-03-02T02:16:06.985Z,23.96
2017-03-02T02:16:52.475Z,24.09
2017-03-02T02:19:32.612Z,24.08
2017-03-02T02:20:49.010Z,24.04
2017-03-02T02:21:03.609Z,24.09
2017-03-02T02:21:18.215Z,24.11
2017-03-02T02:21:32.893Z,24.17
2017-03-02T02:21:47.465Z,24.07
2017-03-02T02:22:12.613Z,24.03
2017-03-02T02:22:27.198Z,24.08
2017-03-02T02:38:07.291Z,23.85
2017-03-02T02:38:21.921Z,23.87
2017-03-02T02:38:36.549Z,23.78
2017-03-02T02:38:51.184Z,23.75
2017-03-02T02:39:08.800Z,23.75
2017-03-02T02:39:23.398Z,23.87
2017-03-02T02:40:23.473Z,23.84
2017-03-02T02:40:38.049Z,23.82
2017-03-02T02:40:52.701Z,23.77
2017-03-02T02:41:07.323Z,23.7
2017-03-02T02:41:21.974Z,23.78
2017-03-02T02:41:36.599Z,23.71
2017-03-02T02:41:51.194Z,23.74
2017-03-02T02:42:05.822Z,23.71
2017-03-02T02:42:20.434Z,23.71
2017-03-02T02:43:06.645Z,23.67
2017-03-02T02:43:22.433Z,23.72
2017-03-02T02:43:37.258Z,23.79
2017-03-02T02:43:51.915Z,23.71
2017-03-02T02:44:06.483Z,23.74
2017-03-02T02:44:21.163Z,23.74
2017-03-02T02:44:35.801Z,23.75
2017-03-02T02:44:52.354Z,23.7
2017-03-02T02:45:12.011Z,23.78
2017-03-02T02:45:27.370Z,23.72
2017-03-02T02:45:42.000Z,23.71
2017-03-02T02:45:56.510Z,23.7
2017-03-02T02:46:12.740Z,23.74
2017-03-02T02:46:27.418Z,23.74
2017-03-02T02:46:42.030Z,23.72
2017-03-02T02:46:56.638Z,23.77
2017-03-02T02:47:11.280Z,23.67
2017-03-02T02:47:25.893Z,23.71
2017-03-02T02:47:40.412Z,23.7
2017-03-02T02:47:54.983Z,23.67
2017-03-02T02:48:09.578Z,23.75
2017-03-02T02:48:24.220Z,23.72
2017-03-02T02:48:39.121Z,23.7
2017-03-02T02:48:53.750Z,23.7
2017-03-02T02:49:08.412Z,23.71
2017-03-02T02:49:23.020Z,23.72
2017-03-02T02:49:37.631Z,23.72
2017-03-02T02:49:52.213Z,23.72
2017-03-02T02:50:06.847Z,23.7
2017-03-02T02:50:21.465Z,23.64
2017-03-02T02:50:36.112Z,23.67
2017-03-02T02:50:50.742Z,23.7
2017-03-02T02:51:05.330Z,23.67
2017-03-02T02:51:19.916Z,23.77
2017-03-02T02:51:34.422Z,23.71
2017-03-02T02:51:49.092Z,23.71
2017-03-02T02:52:03.662Z,23.66
2017-03-02T02:52:18.283Z,23.85
2017-03-02T02:52:32.886Z,23.77
2017-03-02T02:52:47.466Z,23.77
2017-03-02T02:53:02.078Z,23.81
2017-03-02T02:53:16.735Z,23.72
2017-03-02T02:53:31.562Z,23.77
2017-03-02T02:53:46.227Z,23.74
2017-03-02T02:54:00.819Z,23.74
2017-03-02T02:54:15.415Z,23.7
2017-03-02T02:54:30.024Z,23.67
2017-03-02T02:54:44.644Z,23.74
2017-03-02T02:54:59.220Z,23.66
2017-03-02T02:55:13.891Z,23.72
2017-03-02T02:55:28.462Z,23.81
2017-03-02T02:55:43.115Z,23.71
2017-03-02T02:55:57.698Z,23.71
2017-03-02T02:56:12.302Z,23.66
2017-03-02T02:56:26.977Z,23.72
2017-03-02T02:56:41.574Z,23.72
2017-03-02T02:56:56.195Z,23.67
2017-03-02T02:57:10.760Z,23.74
2017-03-02T02:57:25.555Z,23.74
2017-03-02T02:57:40.135Z,23.71
2017-03-02T02:57:54.713Z,23.77
2017-03-02T02:58:09.334Z,23.72
2017-03-02T02:58:23.883Z,23.74
2017-03-02T02:58:38.523Z,23.72
2017-03-02T02:58:53.139Z,23.7
2017-03-02T02:59:07.727Z,23.71
2017-03-02T02:59:22.292Z,23.72
2017-03-02T02:59:36.896Z,23.75
2017-03-02T02:59:51.478Z,23.72
2017-03-02T03:00:06.100Z,23.75
2017-03-02T03:00:20.722Z,23.7
2017-03-02T03:00:35.383Z,23.71
2017-03-02T03:00:50.027Z,23.71
2017-03-02T03:01:04.568Z,23.72
2017-03-02T03:01:19.433Z,23.74
2017-03-02T03:01:34.030Z,23.71
2017-03-02T03:01:48.672Z,23.74
2017-03-02T03:02:03.286Z,23.74
2017-03-02T03:02:17.889Z,23.77
2017-03-02T03:02:32.569Z,23.77
2017-03-02T03:02:47.181Z,23.78
2017-03-02T03:03:01.808Z,23.81
2017-03-02T03:03:16.456Z,23.79
2017-03-02T03:03:31.089Z,23.78
2017-03-02T03:03:45.720Z,23.78
2017-03-02T03:04:00.313Z,23.77
2017-03-02T03:04:14.969Z,23.81
2017-03-02T03:04:29.524Z,23.79
2017-03-02T03:04:44.172Z,23.85
2017-03-02T03:04:58.781Z,23.81
2017-03-02T03:05:13.419Z,23.84
2017-03-02T03:05:28.068Z,23.9
2017-03-02T03:05:42.709Z,23.82
2017-03-02T03:05:57.271Z,23.82
2017-03-02T03:06:11.884Z,23.82
2017-03-02T03:06:26.492Z,23.89
2017-03-02T03:06:41.086Z,23.81
2017-03-02T03:06:55.670Z,23.74
2017-03-02T03:07:10.257Z,23.79
2017-03-02T03:07:24.954Z,23.84
2017-03-02T03:07:39.545Z,23.85
2017-03-02T03:07:54.109Z,23.84
2017-03-02T03:08:08.722Z,23.9
2017-03-02T03:08:23.416Z,23.87
2017-03-02T03:08:38.073Z,23.9
2017-03-02T03:08:52.680Z,23.9
2017-03-02T03:09:07.271Z,23.93
2017-03-02T03:09:21.894Z,23.87
2017-03-02T03:09:36.478Z,23.9
2017-03-02T03:09:51.040Z,23.87
2017-03-02T03:10:05.591Z,23.92
2017-03-02T03:10:20.146Z,23.93
2017-03-02T03:10:35.244Z,23.85
2017-03-02T03:10:49.863Z,23.84
2017-03-02T03:11:04.468Z,23.87
2017-03-02T03:11:19.097Z,23.92
2017-03-02T03:11:33.654Z,23.92
2017-03-02T03:11:48.805Z,23.9
2017-03-02T03:12:03.363Z,23.82
2017-03-02T03:12:17.996Z,23.82
2017-03-02T03:12:32.567Z,23.92
2017-03-02T03:12:47.223Z,23.87
2017-03-02T03:13:01.850Z,23.94
2017-03-02T03:13:16.413Z,23.94
2017-03-02T03:13:31.041Z,23.87
2017-03-02T03:13:45.731Z,23.94
2017-03-02T03:14:00.280Z,23.96
2017-03-02T03:14:14.872Z,23.96
2017-03-02T03:14:29.435Z,23.92
2017-03-02T03:14:44.059Z,23.9
2017-03-02T03:14:58.658Z,23.9
2017-03-02T03:15:13.267Z,23.89
2017-03-02T03:15:27.882Z,23.87
2017-03-02T03:15:42.501Z,23.92
2017-03-02T03:15:57.087Z,23.96
2017-03-02T03:16:11.678Z,23.97
2017-03-02T03:16:26.313Z,23.93
2017-03-02T03:16:40.923Z,24.04
2017-03-02T03:16:55.598Z,23.99
2017-03-02T03:17:10.245Z,23.94
2017-03-02T03:17:24.857Z,23.93
2017-03-02T03:17:39.523Z,23.96
2017-03-02T03:17:54.124Z,23.96
2017-03-02T03:18:08.725Z,23.9
2017-03-02T03:18:23.431Z,23.92
2017-03-02T03:18:38.045Z,23.92
2017-03-02T03:18:52.671Z,23.96
2017-03-02T03:19:07.239Z,24.02
2017-03-02T03:19:21.791Z,23.9
2017-03-02T03:19:36.414Z,24
2017-03-02T03:19:51.001Z,24
2017-03-02T03:20:05.604Z,24
2017-03-02T03:20:20.216Z,23.94
2017-03-02T03:20:34.820Z,23.99
2017-03-02T03:20:49.460Z,23.94
2017-03-02T03:21:04.052Z,23.99
2017-03-02T03:21:18.612Z,23.96
2017-03-02T03:21:33.167Z,24
2017-03-02T03:21:47.771Z,23.93
2017-03-02T03:22:02.363Z,23.96
2017-03-02T03:22:16.957Z,23.94
2017-03-02T03:22:31.538Z,23.97
2017-03-02T03:22:46.160Z,23.99
2017-03-02T03:23:00.789Z,23.97
2017-03-02T03:23:15.394Z,24
2017-03-02T03:23:30.124Z,24
2017-03-02T03:23:44.689Z,23.93
2017-03-02T03:23:59.364Z,23.94
2017-03-02T03:24:14.012Z,23.94
2017-03-02T03:24:28.615Z,24.02
2017-03-02T03:24:43.206Z,24
2017-03-02T03:24:57.871Z,23.89
2017-03-02T03:25:12.458Z,24.07
2017-03-02T03:25:27.021Z,24.04
2017-03-02T03:25:41.639Z,24.08
2017-03-02T03:25:56.258Z,24.08
2017-03-02T03:26:10.887Z,24.07
2017-03-02T03:26:25.514Z,24.07
2017-03-02T03:26:40.135Z,24.12
2017-03-02T03:26:54.756Z,24.08
2017-03-02T03:27:09.397Z,24.08
2017-03-02T03:27:23.977Z,24.08
2017-03-02T03:27:38.552Z,24.04
2017-03-02T03:27:53.183Z,24.07
2017-03-02T03:28:07.827Z,24.07
2017-03-02T03:28:22.382Z,24.08
2017-03-02T03:28:37.041Z,24.07
2017-03-02T03:28:51.654Z,24.09
2017-03-02T03:29:06.264Z,24.04
2017-03-02T03:29:20.902Z,23.99
2017-03-02T03:29:35.714Z,24
2017-03-02T03:29:50.388Z,23.96
2017-03-02T03:30:04.998Z,23.99
2017-03-02T03:30:19.650Z,24.03
2017-03-02T03:30:34.293Z,24.04
2017-03-02T03:30:48.914Z,23.97
2017-03-02T03:31:03.472Z,23.93
2017-03-02T03:31:18.046Z,24.04
2017-03-02T03:31:32.654Z,24.03
2017-03-02T03:31:47.248Z,24.09
2017-03-02T03:32:01.905Z,24.04
2017-03-02T03:32:16.478Z,24.14
2017-03-02T03:32:31.077Z,24.04
2017-03-02T03:32:45.712Z,24.11
2017-03-02T03:33:00.316Z,24.14
2017-03-02T03:33:14.920Z,24.11
2017-03-02T03:33:29.520Z,24.07
2017-03-02T03:33:44.252Z,24.08
2017-03-02T03:33:58.838Z,24.11
2017-03-02T03:34:13.395Z,24.07
2017-03-02T03:34:28.017Z,24.04
2017-03-02T03:34:42.615Z,24.02
2017-03-02T03:34:57.179Z,24.03
2017-03-02T03:35:11.812Z,24.02
2017-03-02T03:35:26.447Z,24.07
2017-03-02T03:35:41.027Z,24.02
2017-03-02T03:35:55.708Z,24
2017-03-02T03:36:10.293Z,23.96
2017-03-02T03:36:24.897Z,23.92
2017-03-02T03:36:39.528Z,23.96
2017-03-02T03:36:54.180Z,23.9
2017-03-02T03:37:08.810Z,23.9
2017-03-02T03:37:23.625Z,23.81
2017-03-02T03:37:38.209Z,23.85
2017-03-02T03:37:52.804Z,23.79
2017-03-02T03:38:07.400Z,23.78
2017-03-02T03:38:22.056Z,23.77
2017-03-02T03:38:36.897Z,23.74
2017-03-02T03:38:51.517Z,23.72
2017-03-02T03:39:06.174Z,23.74
2017-03-02T03:39:20.706Z,23.7
2017-03-02T03:39:35.238Z,23.71
2017-03-02T03:39:49.843Z,23.64
2017-03-02T03:40:04.449Z,23.71
2017-03-02T03:40:19.076Z,23.71
2017-03-02T03:40:33.659Z,23.75
2017-03-02T03:40:48.272Z,23.7
2017-03-02T03:41:02.884Z,23.75
2017-03-02T03:41:17.496Z,23.67
2017-03-02T03:41:32.062Z,23.7
2017-03-02T03:41:46.687Z,23.81
2017-03-02T03:42:01.263Z,23.67
2017-03-02T03:42:15.920Z,23.6
2017-03-02T03:42:30.567Z,23.63
2017-03-02T03:42:45.169Z,23.66
2017-03-02T03:42:59.786Z,23.74
2017-03-02T03:43:14.366Z,23.63
2017-03-02T03:43:28.940Z,23.62
2017-03-02T03:43:43.560Z,23.62
2017-03-02T03:43:58.166Z,23.6
2017-03-02T03:44:12.760Z,23.67
2017-03-02T03:44:27.416Z,23.63
2017-03-02T03:44:42.041Z,23.62
2017-03-02T03:44:56.633Z,23.64
2017-03-02T03:45:11.228Z,23.66
2017-03-02T03:45:25.862Z,23.55
2017-03-02T03:45:40.453Z,23.59
2017-03-02T03:45:54.994Z,23.63
2017-03-02T03:46:09.606Z,23.63
2017-03-02T03:46:24.186Z,23.63
2017-03-02T03:46:38.784Z,23.59
2017-03-02T03:46:53.416Z,23.59
2017-03-02T03:47:08.095Z,23.6
2017-03-02T03:47:22.667Z,23.75
2017-03-02T03:47:37.241Z,23.7
2017-03-02T03:47:51.792Z,23.72
2017-03-02T03:48:06.426Z,23.67
2017-03-02T03:48:21.062Z,23.79
2017-03-02T03:48:35.690Z,23.71
2017-03-02T03:48:50.293Z,23.71
2017-03-02T03:49:04.893Z,23.75
2017-03-02T03:49:19.517Z,23.77
2017-03-02T03:49:34.120Z,23.85
2017-03-02T03:49:48.730Z,23.81
2017-03-02T03:50:03.306Z,23.84
2017-03-02T03:50:17.855Z,23.89
2017-03-02T03:50:32.478Z,23.9
2017-03-02T03:50:47.069Z,23.94
2017-03-02T03:51:01.756Z,24
2017-03-02T03:51:16.414Z,23.96
2017-03-02T03:51:30.948Z,23.99
2017-03-02T03:51:45.518Z,23.94
2017-03-02T03:52:00.143Z,23.97
2017-03-02T03:52:14.730Z,24
2017-03-02T03:52:29.324Z,23.96
2017-03-02T03:52:43.939Z,23.93
2017-03-02T03:52:58.531Z,23.93
2017-03-02T03:53:13.097Z,23.92
2017-03-02T03:53:27.809Z,24.09
2017-03-02T03:53:42.503Z,24.03
2017-03-02T03:53:57.345Z,24.07
2017-03-02T03:54:11.998Z,24.08
2017-03-02T03:54:26.575Z,24.09
2017-03-02T03:54:41.191Z,24.08
2017-03-02T03:54:55.758Z,24.08
2017-03-02T03:55:10.323Z,24.04
2017-03-02T03:55:24.925Z,24.07
2017-03-02T03:55:39.458Z,24.14
2017-03-02T03:55:54.103Z,24.07
2017-03-02T03:56:08.674Z,24.09
2017-03-02T03:56:23.259Z,24.12
2017-03-02T03:56:37.861Z,24.02
2017-03-02T03:56:52.457Z,24.08
2017-03-02T03:57:07.063Z,24.11
2017-03-02T03:57:21.646Z,24.02
2017-03-02T03:57:36.227Z,24.04
2017-03-02T03:57:50.868Z,24.07
2017-03-02T03:58:05.439Z,24.04
2017-03-02T03:58:20.044Z,24.02
2017-03-02T03:58:34.645Z,24.07
2017-03-02T03:58:49.464Z,23.92
2017-03-02T03:59:04.060Z,23.97
2017-03-02T03:59:18.671Z,23.96
2017-03-02T03:59:33.252Z,24.02
2017-03-02T03:59:47.915Z,23.97
2017-03-02T04:00:02.521Z,23.97
2017-03-02T04:00:17.156Z,23.93
2017-03-02T04:00:31.773Z,23.93
2017-03-02T04:00:46.389Z,23.99
2017-03-02T04:01:01.009Z,23.96
2017-03-02T04:01:15.608Z,23.97
2017-03-02T04:01:30.247Z,23.94
2017-03-02T04:01:44.895Z,23.94
2017-03-02T04:01:59.486Z,23.9
2017-03-02T04:02:14.109Z,23.87
2017-03-02T04:02:28.715Z,23.85
2017-03-02T04:02:43.313Z,23.81
2017-03-02T04:02:57.911Z,23.96
2017-03-02T04:03:12.446Z,23.9
2017-03-02T04:03:27.005Z,23.87
2017-03-02T04:03:41.654Z,23.9
2017-03-02T04:03:56.351Z,23.82
2017-03-02T04:04:11.020Z,23.87
2017-03-02T04:04:25.656Z,23.77
2017-03-02T04:04:40.291Z,23.84
2017-03-02T04:04:54.842Z,23.81
2017-03-02T04:05:09.471Z,23.75
2017-03-02T04:05:24.117Z,23.79
2017-03-02T04:05:38.745Z,23.81
2017-03-02T04:05:53.330Z,23.74
2017-03-02T04:06:07.953Z,23.75
2017-03-02T04:06:22.499Z,23.71
2017-03-02T04:06:37.133Z,23.77
2017-03-02T04:06:51.747Z,23.7
2017-03-02T04:07:06.322Z,23.74
2017-03-02T04:07:20.933Z,23.79
2017-03-02T04:07:35.552Z,23.74
2017-03-02T04:07:50.199Z,23.67
2017-03-02T04:08:04.823Z,23.63
2017-03-02T04:08:19.465Z,23.66
2017-03-02T04:08:34.095Z,23.64
2017-03-02T04:08:48.686Z,23.62
2017-03-02T04:09:03.556Z,23.55
2017-03-02T04:09:18.211Z,23.48
2017-03-02T04:09:32.804Z,23.47
2017-03-02T04:09:47.371Z,23.53
2017-03-02T04:10:01.926Z,23.5
2017-03-02T04:10:16.483Z,23.5
2017-03-02T04:10:31.059Z,23.57
2017-03-02T04:10:45.680Z,23.56
2017-03-02T04:11:00.263Z,23.42
2017-03-02T04:11:14.863Z,23.52
2017-03-02T04:11:29.431Z,23.56
2017-03-02T04:11:44.108Z,23.55
2017-03-02T04:11:58.797Z,23.59
2017-03-02T04:12:13.365Z,23.55
2017-03-02T04:12:27.923Z,23.44
2017-03-02T04:12:42.495Z,23.48
2017-03-02T04:12:57.102Z,23.42
2017-03-02T04:13:11.683Z,23.52
2017-03-02T04:13:26.285Z,23.4
2017-03-02T04:13:40.844Z,23.55
2017-03-02T04:13:55.446Z,23.63
2017-03-02T04:14:10.044Z,23.47
2017-03-02T04:14:24.709Z,23.56
2017-03-02T04:14:39.266Z,23.62
2017-03-02T04:14:53.828Z,23.59
2017-03-02T04:15:08.474Z,23.63
2017-03-02T04:15:23.065Z,23.63
2017-03-02T04:15:37.613Z,23.56
2017-03-02T04:15:52.205Z,23.64
2017-03-02T04:16:06.760Z,23.63
2017-03-02T04:16:21.370Z,23.66
2017-03-02T04:16:36.011Z,23.78
2017-03-02T04:16:50.656Z,23.75
2017-03-02T04:17:05.243Z,23.72
2017-03-02T04:17:19.899Z,23.74
2017-03-02T04:17:34.467Z,23.72
2017-03-02T04:17:49.068Z,23.75
2017-03-02T04:18:03.662Z,23.74
2017-03-02T04:18:18.243Z,23.71
2017-03-02T04:18:32.840Z,23.75
2017-03-02T04:18:47.490Z,23.74
2017-03-02T04:19:02.127Z,23.82
2017-03-02T04:19:16.771Z,23.81
2017-03-02T04:19:31.352Z,23.72
2017-03-02T04:19:45.946Z,23.81
2017-03-02T04:20:00.560Z,23.74
2017-03-02T04:20:15.178Z,23.81
2017-03-02T04:20:29.756Z,23.66
2017-03-02T04:20:44.370Z,23.79
2017-03-02T04:20:58.988Z,23.66
2017-03-02T04:21:13.553Z,23.63
2017-03-02T04:21:28.149Z,23.6
2017-03-02T04:21:42.782Z,23.7
2017-03-02T04:21:57.372Z,23.62
2017-03-02T04:22:11.983Z,23.66
2017-03-02T04:22:26.597Z,23.57
2017-03-02T04:22:41.164Z,23.63
2017-03-02T04:22:55.810Z,23.57
2017-03-02T04:23:10.419Z,23.67
2017-03-02T04:23:25.016Z,23.59
2017-03-02T04:23:39.571Z,23.59
2017-03-02T04:23:54.133Z,23.63
2017-03-02T04:24:08.919Z,23.62
2017-03-02T04:24:23.562Z,23.7
2017-03-02T04:24:38.165Z,23.71
2017-03-02T04:24:52.766Z,23.7
2017-03-02T04:25:07.373Z,23.72
2017-03-02T04:25:21.981Z,23.66
2017-03-02T04:25:36.627Z,23.75
2017-03-02T04:25:51.248Z,23.7
2017-03-02T04:26:05.880Z,23.63
2017-03-02T04:26:20.454Z,23.64
2017-03-02T04:26:35.047Z,23.64
2017-03-02T04:26:49.700Z,23.66
2017-03-02T04:27:04.310Z,23.57
2017-03-02T04:27:18.876Z,23.71
2017-03-02T04:27:33.487Z,23.63
2017-03-02T04:27:48.071Z,23.62
2017-03-02T04:28:02.699Z,23.67
2017-03-02T04:28:17.327Z,23.71
2017-03-02T04:28:31.968Z,23.64
2017-03-02T04:28:46.532Z,23.72
2017-03-02T04:29:01.163Z,23.62
2017-03-02T04:29:15.751Z,23.66
2017-03-02T04:29:30.371Z,23.63
2017-03-02T04:29:45.041Z,23.59
2017-03-02T04:29:59.613Z,23.63
2017-03-02T04:30:14.164Z,23.63
2017-03-02T04:30:28.793Z,23.62
2017-03-02T04:30:43.370Z,23.59
2017-03-02T04:30:58.183Z,23.6
2017-03-02T04:31:12.789Z,23.67
2017-03-02T04:31:27.315Z,23.57
2017-03-02T04:31:41.963Z,23.66
2017-03-02T04:31:56.568Z,23.66
2017-03-02T04:32:11.138Z,23.6
2017-03-02T04:32:25.793Z,23.67
2017-03-02T04:32:40.414Z,23.71
2017-03-02T04:32:54.993Z,23.66
2017-03-02T04:33:09.579Z,23.74
2017-03-02T04:33:24.150Z,23.72
2017-03-02T04:33:38.796Z,23.63
2017-03-02T04:33:53.597Z,23.62
2017-03-02T04:34:08.198Z,23.56
2017-03-02T04:34:22.900Z,23.64
2017-03-02T04:34:37.531Z,23.64
2017-03-02T04:34:52.111Z,23.64
2017-03-02T04:35:06.716Z,23.63
2017-03-02T04:35:21.313Z,23.56
2017-03-02T04:35:35.907Z,23.57
2017-03-02T04:35:50.581Z,23.55
2017-03-02T04:36:05.182Z,23.57
2017-03-02T04:36:19.740Z,23.66
2017-03-02T04:36:34.376Z,23.56
2017-03-02T04:36:48.954Z,23.64
2017-03-02T04:37:03.600Z,23.57
2017-03-02T04:37:18.225Z,23.6
2017-03-02T04:37:32.842Z,23.59
2017-03-02T04:37:47.468Z,23.6
2017-03-02T04:38:02.152Z,23.66
2017-03-02T04:38:16.704Z,23.57
2017-03-02T04:38:31.355Z,23.62
2017-03-02T04:38:45.995Z,23.63
2017-03-02T04:39:00.632Z,23.67
2017-03-02T04:39:15.464Z,23.55
2017-03-02T04:39:30.106Z,23.62
2017-03-02T04:39:44.762Z,23.66
2017-03-02T04:39:59.336Z,23.64
2017-03-02T04:40:13.884Z,23.7
2017-03-02T04:40:28.459Z,23.63
2017-03-02T04:40:43.043Z,23.66
2017-03-02T04:40:57.692Z,23.63
2017-03-02T04:41:12.359Z,23.57
2017-03-02T04:41:26.993Z,23.71
2017-03-02T04:41:41.643Z,23.67
2017-03-02T04:41:56.232Z,23.78
2017-03-02T04:42:10.842Z,23.78
2017-03-02T04:42:25.441Z,23.71
2017-03-02T04:42:40.030Z,23.81
2017-03-02T04:42:54.606Z,23.75
2017-03-02T04:43:09.194Z,23.74
2017-03-02T04:43:23.777Z,23.66
2017-03-02T04:43:38.414Z,23.72
2017-03-02T04:43:53.020Z,23.67
2017-03-02T04:44:07.683Z,23.74
2017-03-02T04:44:22.292Z,23.7
2017-03-02T04:44:36.853Z,23.63
2017-03-02T04:44:51.471Z,23.7
2017-03-02T04:45:06.058Z,23.64
2017-03-02T04:45:20.629Z,23.74
2017-03-02T04:45:35.295Z,23.67
2017-03-02T04:45:49.951Z,23.72
2017-03-02T04:46:04.518Z,23.74
2017-03-02T04:46:19.140Z,23.74
2017-03-02T04:46:33.760Z,23.71
2017-03-02T04:46:48.366Z,23.78
2017-03-02T04:47:02.997Z,23.75
2017-03-02T04:47:17.625Z,23.74
2017-03-02T04:47:32.483Z,23.81
2017-03-02T04:47:47.094Z,23.7
2017-03-02T04:48:01.728Z,23.72
2017-03-02T04:48:16.218Z,23.67
2017-03-02T04:48:31.051Z,23.67
2017-03-02T04:48:45.686Z,23.64
2017-03-02T04:49:00.267Z,23.63
2017-03-02T04:49:14.881Z,23.66
2017-03-02T04:49:29.488Z,23.63
2017-03-02T04:49:44.057Z,23.64
2017-03-02T04:49:58.682Z,23.75
2017-03-02T04:50:13.312Z,23.64
2017-03-02T04:50:27.897Z,23.72
2017-03-02T04:50:42.505Z,23.66
2017-03-02T04:50:57.085Z,23.6
2017-03-02T04:51:11.735Z,23.63
2017-03-02T04:51:26.387Z,23.72
2017-03-02T04:51:40.925Z,23.67
2017-03-02T04:51:55.532Z,23.67
2017-03-02T04:52:10.180Z,23.7
2017-03-02T04:52:24.759Z,23.75
2017-03-02T04:52:39.417Z,23.66
2017-03-02T04:52:54.074Z,23.67
2017-03-02T04:53:08.684Z,23.62
2017-03-02T04:53:23.310Z,23.66
2017-03-02T04:53:37.934Z,23.67
2017-03-02T04:53:52.543Z,23.63
2017-03-02T04:54:07.203Z,23.71
2017-03-02T04:54:22.064Z,23.64
2017-03-02T04:54:36.664Z,23.62
2017-03-02T04:54:51.299Z,23.71
2017-03-02T04:55:05.881Z,23.71
2017-03-02T04:55:20.511Z,23.62
2017-03-02T04:55:35.044Z,23.67
2017-03-02T04:55:49.643Z,23.75
2017-03-02T04:56:04.260Z,23.74
2017-03-02T04:56:18.870Z,23.66
2017-03-02T04:56:33.527Z,23.74
2017-03-02T04:56:48.141Z,23.75
2017-03-02T04:57:02.693Z,23.7
2017-03-02T04:57:17.309Z,23.71
2017-03-02T04:57:31.912Z,23.74
2017-03-02T04:57:46.566Z,23.72
2017-03-02T04:58:01.174Z,23.7
2017-03-02T04:58:15.786Z,23.77
2017-03-02T04:58:30.373Z,23.78
2017-03-02T04:58:44.934Z,23.75
2017-03-02T04:58:59.536Z,23.75
2017-03-02T04:59:14.131Z,23.81
2017-03-02T04:59:28.699Z,23.75
2017-03-02T04:59:43.251Z,23.78
2017-03-02T04:59:57.860Z,23.81
2017-03-02T05:00:12.445Z,23.82
2017-03-02T05:00:27.019Z,23.74
2017-03-02T05:00:41.627Z,23.84
2017-03-02T05:00:56.207Z,23.81
2017-03-02T05:01:10.840Z,23.72
2017-03-02T05:01:25.461Z,23.71
2017-03-02T05:01:40.103Z,23.79
2017-03-02T05:01:54.699Z,23.75
2017-03-02T05:02:09.344Z,23.81
2017-03-02T05:02:23.997Z,23.82
2017-03-02T05:02:38.578Z,23.79
2017-03-02T05:02:53.191Z,23.81
2017-03-02T05:03:07.786Z,23.81
2017-03-02T05:03:22.285Z,23.84
2017-03-02T05:03:36.854Z,23.82
2017-03-02T05:03:51.485Z,23.89
2017-03-02T05:04:06.088Z,23.89
2017-03-02T05:04:20.648Z,23.82
2017-03-02T05:04:35.328Z,23.84
2017-03-02T05:04:49.937Z,23.81
2017-03-02T05:05:04.543Z,23.84
2017-03-02T05:05:19.176Z,23.87
2017-03-02T05:05:33.780Z,23.85
2017-03-02T05:05:48.412Z,23.77
2017-03-02T05:06:03.020Z,23.84
2017-03-02T05:06:17.654Z,23.75
2017-03-02T05:06:32.262Z,23.79